Time;durP1;ratioP1;P1;durP2;ratioP2;P2;SDS_P1;SDS_P2;PMS_P1;PMS_P2;Temp;Humidity;BMP_temperature;BMP_pressure;BME280_temperature;BME280_humidity;BME280_pressure;Samples;Min_cycle;Max_cycle;Signal;HPM_P1;HPM_P2
2022/05/27 00:00:00;;;;;;;4.43;4.13;;;17.20;99.90;;;;;;6300027;28;20802;-62
2022/05/27 00:03:04;;;;;;;3.97;3.70;;;17.20;99.90;;;;;;6299852;28;20465;-62
2022/05/27 00:06:07;;;;;;;4.30;3.90;;;17.20;99.90;;;;;;6300888;28;20495;-62
2022/05/27 00:09:12;;;;;;;4.23;3.83;;;17.20;99.90;;;;;;6300423;28;20778;-62
2022/05/27 00:12:15;;;;;;;4.27;3.87;;;17.20;99.90;;;;;;6299830;28;20461;-62
2022/05/27 00:15:19;;;;;;;5.13;4.63;;;17.20;99.90;;;;;;6300118;28;20456;-62
2022/05/27 00:18:23;;;;;;;4.70;4.40;;;17.10;99.90;;;;;;6299909;28;20891;-62
2022/05/27 00:21:27;;;;;;;8.67;4.23;;;17.10;99.90;;;;;;6300253;28;20484;-63
2022/05/27 00:24:31;;;;;;;4.63;4.23;;;17.10;99.90;;;;;;6299870;28;20763;-62
2022/05/27 00:27:34;;;;;;;5.33;4.30;;;17.10;99.90;;;;;;6300306;28;20453;-62
2022/05/27 00:30:37;;;;;;;4.20;3.90;;;17.10;99.90;;;;;;6299806;28;20480;-62
2022/05/27 00:33:41;;;;;;;4.10;3.80;;;17.10;99.90;;;;;;6299941;28;20569;-63
2022/05/27 00:36:44;;;;;;;4.60;4.20;;;17.00;99.90;;;;;;6299184;28;20791;-63
2022/05/27 00:39:48;;;;;;;4.00;3.70;;;17.00;99.90;;;;;;6299886;28;20465;-62
2022/05/27 00:42:52;;;;;;;4.33;3.93;;;17.00;99.90;;;;;;6299461;28;20465;-63
2022/05/27 00:46:00;;;;;;;5.83;4.13;;;17.00;99.90;;;;;;6299801;28;20476;-63
2022/05/27 00:49:09;;;;;;;5.10;4.43;;;16.90;99.90;;;;;;6299986;28;20484;-62
2022/05/27 00:52:14;;;;;;;3.97;3.57;;;16.90;99.90;;;;;;6300217;28;20465;-63
2022/05/27 00:55:23;;;;;;;4.40;4.10;;;16.90;99.90;;;;;;6302175;28;20774;-63
2022/05/27 00:58:31;;;;;;;5.73;4.43;;;16.90;99.90;;;;;;6302018;28;20935;-63
2022/05/27 01:01:34;;;;;;;5.53;4.03;;;16.80;99.90;;;;;;6299734;28;20824;-63
2022/05/27 01:04:38;;;;;;;5.93;4.57;;;16.90;99.90;;;;;;6299791;28;20496;-63
2022/05/27 01:07:41;;;;;;;4.20;3.90;;;16.80;99.90;;;;;;6299584;28;20465;-63
2022/05/27 01:10:55;;;;;;;4.70;4.30;;;16.80;99.90;;;;;;6298923;28;20469;-62
2022/05/27 01:14:14;;;;;;;4.33;4.03;;;16.80;99.90;;;;;;6299094;28;20465;-62
2022/05/27 01:17:27;;;;;;;6.67;4.53;;;16.80;99.90;;;;;;6299085;28;20465;-63
2022/05/27 01:20:38;;;;;;;4.50;4.20;;;16.80;99.90;;;;;;6298858;28;20508;-61
2022/05/27 01:24:15;;;;;;;5.80;4.43;;;16.90;99.90;;;;;;6299382;28;20819;-62
2022/05/27 01:27:48;;;;;;;4.33;3.83;;;16.80;99.90;;;;;;6299173;28;20915;-61
2022/05/27 01:30:58;;;;;;;4.40;4.10;;;16.70;99.90;;;;;;6299440;28;20457;-61
2022/05/27 01:34:15;;;;;;;3.80;3.50;;;16.70;99.90;;;;;;6299222;28;20480;-61
2022/05/27 01:37:25;;;;;;;5.63;3.60;;;16.70;99.90;;;;;;6300549;28;20466;-62
2022/05/27 01:40:33;;;;;;;4.13;3.83;;;16.60;99.90;;;;;;6298815;28;20981;-61
2022/05/27 01:43:41;;;;;;;4.83;3.67;;;16.60;99.90;;;;;;6298282;28;20807;-61
2022/05/27 01:46:47;;;;;;;4.57;4.27;;;16.60;99.90;;;;;;6299387;28;20470;-61
2022/05/27 01:49:57;;;;;;;4.87;4.43;;;16.50;99.90;;;;;;6301643;28;20469;-61
2022/05/27 01:53:06;;;;;;;8.80;3.90;;;16.50;99.90;;;;;;6303394;28;20469;-62
2022/05/27 01:56:17;;;;;;;4.43;4.13;;;16.50;99.90;;;;;;6303263;28;20473;-62
2022/05/27 01:59:30;;;;;;;5.07;4.57;;;16.50;99.90;;;;;;6303220;28;20466;-62
2022/05/27 02:02:38;;;;;;;4.00;3.70;;;16.50;99.90;;;;;;6302751;28;20475;-62
2022/05/27 02:05:47;;;;;;;4.67;4.27;;;16.50;99.90;;;;;;6302956;28;20466;-62
2022/05/27 02:08:57;;;;;;;4.80;4.40;;;16.50;99.90;;;;;;6302545;28;20458;-62
2022/05/27 02:12:06;;;;;;;4.50;4.10;;;16.50;99.90;;;;;;6302713;28;20470;-62
2022/05/27 02:15:14;;;;;;;4.43;3.90;;;16.40;99.90;;;;;;6302666;28;20475;-61
2022/05/27 02:18:23;;;;;;;4.90;4.40;;;16.40;99.90;;;;;;6302398;28;20810;-61
2022/05/27 02:21:32;;;;;;;5.20;4.80;;;16.40;99.90;;;;;;6302321;28;20477;-62
2022/05/27 02:24:40;;;;;;;3.90;3.60;;;16.30;99.90;;;;;;6302394;28;20788;-62
2022/05/27 02:27:47;;;;;;;4.03;3.73;;;16.30;99.90;;;;;;6302870;28;20472;-62
2022/05/27 02:30:57;;;;;;;4.40;4.10;;;16.20;99.90;;;;;;6302343;28;20962;-62
2022/05/27 02:37:31;;;;;;;4.90;4.40;;;16.20;99.90;;;;;;6302293;28;20477;-61
2022/05/27 02:40:41;;;;;;;5.93;4.70;;;16.20;99.90;;;;;;6301516;28;20484;-61
2022/05/27 02:44:06;;;;;;;9.37;4.77;;;16.20;99.90;;;;;;6301869;28;20491;-61
2022/05/27 02:47:15;;;;;;;6.13;5.57;;;16.20;99.90;;;;;;6302044;28;20469;-61
2022/05/27 02:50:28;;;;;;;5.30;4.80;;;16.20;99.90;;;;;;6302069;28;20477;-61
2022/05/27 02:53:40;;;;;;;4.50;4.20;;;16.20;99.90;;;;;;6301636;28;20931;-61
2022/05/27 02:56:48;;;;;;;4.70;4.30;;;16.20;99.90;;;;;;6302205;28;20469;-61
2022/05/27 02:59:52;;;;;;;4.97;4.50;;;16.10;99.90;;;;;;6301389;28;20471;-62
2022/05/27 03:02:59;;;;;;;4.27;3.90;;;16.10;99.90;;;;;;6301309;28;20469;-61
2022/05/27 03:06:28;;;;;;;5.03;4.70;;;16.10;99.90;;;;;;6301464;28;20482;-61
2022/05/27 03:09:46;;;;;;;7.43;4.80;;;16.10;99.90;;;;;;6301282;28;20777;-61
2022/05/27 03:13:03;;;;;;;4.93;4.53;;;16.00;99.90;;;;;;6301292;28;20912;-62
2022/05/27 03:16:18;;;;;;;4.87;4.43;;;16.00;99.90;;;;;;6301436;28;20996;-62
2022/05/27 03:19:36;;;;;;;4.47;4.07;;;16.00;99.90;;;;;;6301269;28;20473;-62
2022/05/27 03:22:59;;;;;;;4.83;4.43;;;16.00;99.90;;;;;;6301215;28;20469;-61
2022/05/27 03:26:09;;;;;;;4.13;3.73;;;16.00;99.90;;;;;;6301317;28;20483;-63
2022/05/27 03:29:22;;;;;;;4.60;4.30;;;16.00;99.90;;;;;;6301090;28;20480;-61
2022/05/27 03:32:31;;;;;;;4.90;4.40;;;16.10;99.90;;;;;;6300897;28;20480;-61
2022/05/27 03:35:40;;;;;;;4.57;4.20;;;16.20;99.90;;;;;;6300670;28;21009;-61
2022/05/27 03:38:51;;;;;;;5.00;4.50;;;16.20;99.90;;;;;;6300992;28;20481;-61
2022/05/27 03:41:59;;;;;;;5.03;4.63;;;16.20;99.90;;;;;;6300398;28;20504;-61
2022/05/27 03:45:06;;;;;;;8.07;4.30;;;16.20;99.90;;;;;;6300549;28;20491;-61
2022/05/27 03:48:09;;;;;;;4.40;3.60;;;16.20;99.90;;;;;;6300422;28;20477;-61
2022/05/27 03:51:20;;;;;;;5.63;4.70;;;16.20;99.90;;;;;;6299937;28;20466;-61
2022/05/27 03:54:26;;;;;;;5.90;5.13;;;16.20;99.90;;;;;;6300082;28;20469;-62
2022/05/27 03:57:29;;;;;;;5.63;3.80;;;16.20;99.90;;;;;;6300042;28;20875;-62
2022/05/27 04:00:32;;;;;;;5.10;4.57;;;16.30;99.90;;;;;;6299827;28;20441;-62
2022/05/27 04:03:35;;;;;;;4.60;4.20;;;16.40;99.90;;;;;;6299998;28;20457;-62
2022/05/27 04:06:39;;;;;;;6.93;4.27;;;16.40;99.90;;;;;;6300028;28;20457;-62
2022/05/27 04:09:44;;;;;;;4.43;4.13;;;16.40;99.90;;;;;;6300749;28;20488;-61
2022/05/27 04:12:47;;;;;;;4.90;4.40;;;16.40;99.90;;;;;;6299679;28;20469;-61
2022/05/27 04:15:52;;;;;;;4.87;4.37;;;16.40;99.90;;;;;;6300279;28;20473;-61
2022/05/27 04:18:55;;;;;;;6.43;4.23;;;16.40;99.90;;;;;;6299414;28;20462;-62
2022/05/27 04:21:58;;;;;;;4.73;4.30;;;16.50;99.90;;;;;;6299810;28;20507;-62
2022/05/27 04:25:04;;;;;;;5.10;4.60;;;16.60;99.90;;;;;;6299774;28;20469;-62
2022/05/27 04:28:07;;;;;;;4.53;4.13;;;16.70;99.90;;;;;;6299829;28;20484;-62
2022/05/27 04:31:10;;;;;;;4.43;4.13;;;16.80;99.90;;;;;;6299897;28;20469;-62
2022/05/27 04:34:13;;;;;;;4.50;4.20;;;16.90;99.90;;;;;;6299722;28;20998;-62
2022/05/27 04:37:17;;;;;;;4.73;4.27;;;16.90;99.90;;;;;;6299657;28;20469;-61
2022/05/27 04:40:22;;;;;;;4.63;3.83;;;17.00;99.90;;;;;;6299991;28;20488;-61
2022/05/27 04:43:25;;;;;;;4.40;4.10;;;17.20;99.90;;;;;;6299275;28;20811;-61
2022/05/27 04:46:28;;;;;;;4.13;3.83;;;17.30;99.90;;;;;;6299889;28;20462;-61
2022/05/27 04:52:52;;;;;;;4.80;4.40;;;17.60;99.90;;;;;;6299678;28;20473;-61
2022/05/27 04:55:56;;;;;;;4.90;4.50;;;17.70;99.90;;;;;;6299320;28;20469;-62
2022/05/27 04:58:59;;;;;;;5.67;4.50;;;17.90;99.90;;;;;;6299939;28;20485;-61
2022/05/27 05:02:04;;;;;;;4.33;3.83;;;18.00;99.90;;;;;;6299277;28;20474;-61
2022/05/27 05:05:08;;;;;;;4.97;4.43;;;18.30;99.90;;;;;;6299865;28;20473;-61
2022/05/27 05:08:19;;;;;;;4.63;3.90;;;18.40;99.90;;;;;;6299330;28;20469;-61
2022/05/27 05:11:24;;;;;;;4.00;3.37;;;18.60;99.90;;;;;;6299491;28;20461;-61
2022/05/27 05:14:27;;;;;;;7.17;4.30;;;18.70;99.90;;;;;;6299239;28;20234;-61
2022/05/27 05:17:30;;;;;;;3.87;3.53;;;19.00;99.90;;;;;;6299383;28;20469;-61
2022/05/27 05:20:34;;;;;;;5.80;4.50;;;19.10;99.90;;;;;;6299318;28;20480;-61
2022/05/27 05:23:37;;;;;;;4.53;3.23;;;19.30;99.90;;;;;;6301399;28;20249;-61
2022/05/27 05:26:42;;;;;;;5.63;3.73;;;19.30;99.90;;;;;;6304048;28;20231;-62
2022/05/27 05:29:45;;;;;;;4.97;3.43;;;19.40;99.90;;;;;;6303600;28;20242;-62
2022/05/27 05:32:48;;;;;;;4.37;4.07;;;19.60;99.90;;;;;;6303569;28;20242;-62
2022/05/27 05:35:51;;;;;;;5.10;4.03;;;19.70;99.90;;;;;;6303616;28;20684;-62
2022/05/27 05:38:54;;;;;;;4.10;3.80;;;19.90;99.90;;;;;;6303508;28;20242;-62
2022/05/27 05:42:01;;;;;;;5.73;4.50;;;20.00;99.90;;;;;;6303104;28;20227;-61
2022/05/27 05:45:05;;;;;;;3.30;2.97;;;20.10;99.90;;;;;;6303455;28;20288;-62
2022/05/27 05:48:09;;;;;;;9.00;3.80;;;20.40;99.90;;;;;;6303952;28;20237;-62
2022/05/27 05:51:12;;;;;;;8.17;4.60;;;20.60;99.90;;;;;;6303342;28;20227;-62
2022/05/27 05:54:15;;;;;;;4.00;3.40;;;21.00;99.90;;;;;;6303322;28;20227;-62
2022/05/27 05:57:20;;;;;;;4.73;3.50;;;21.50;99.80;;;;;;6278172;28;20536;-62
2022/05/27 06:00:25;;;;;;;5.80;3.33;;;21.90;99.20;;;;;;6278691;28;20208;-62
2022/05/27 06:03:29;;;;;;;3.90;3.60;;;22.40;98.20;;;;;;6278056;28;20240;-62
2022/05/27 06:06:32;;;;;;;4.47;4.07;;;23.10;97.90;;;;;;6278708;28;20208;-62
2022/05/27 06:09:36;;;;;;;4.47;4.07;;;23.90;96.40;;;;;;6277695;28;20200;-62
2022/05/27 06:12:41;;;;;;;3.53;3.23;;;24.80;94.30;;;;;;6279161;28;20684;-65
2022/05/27 06:15:54;;;;;;;5.27;4.00;;;25.40;92.50;;;;;;6279174;28;20228;-66
2022/05/27 06:18:58;;;;;;;3.67;3.37;;;25.50;91.00;;;;;;6280157;28;20285;-65
2022/05/27 06:22:02;;;;;;;3.80;3.50;;;25.60;90.40;;;;;;6278983;28;20703;-64
2022/05/27 06:25:06;;;;;;;4.07;3.73;;;26.30;89.10;;;;;;6279321;28;20219;-65
2022/05/27 06:34:52;;;;;;;3.33;3.03;;;27.30;78.90;;;;;;6278833;28;20262;-65
2022/05/27 06:37:55;;;;;;;3.10;2.80;;;27.90;77.10;;;;;;6279801;28;20250;-66
2022/05/27 06:40:58;;;;;;;3.00;2.80;;;28.60;73.80;;;;;;6280449;28;20242;-66
2022/05/27 06:44:04;;;;;;;2.93;2.63;;;28.90;70.20;;;;;;6280160;28;20660;-65
2022/05/27 06:47:09;;;;;;;3.60;3.30;;;28.50;68.40;;;;;;6280260;28;20227;-65
2022/05/27 06:50:13;;;;;;;3.47;3.27;;;28.30;68.90;;;;;;6279731;28;20637;-65
2022/05/27 06:53:16;;;;;;;4.00;3.13;;;28.50;67.20;;;;;;6279357;28;20227;-65
2022/05/27 06:56:21;;;;;;;3.70;3.50;;;28.00;69.30;;;;;;6278361;28;20235;-66
2022/05/27 06:59:25;;;;;;;3.70;3.40;;;28.80;67.50;;;;;;6278490;28;20231;-65
2022/05/27 07:02:28;;;;;;;3.00;2.80;;;29.60;63.50;;;;;;6278285;28;20242;-66
2022/05/27 07:05:32;;;;;;;3.37;3.17;;;30.40;62.90;;;;;;6278303;28;20242;-66
2022/05/27 07:08:36;;;;;;;4.20;3.90;;;30.70;60.20;;;;;;6278246;28;20227;-66
2022/05/27 07:11:41;;;;;;;5.60;3.83;;;30.40;59.10;;;;;;6278822;28;20231;-66
2022/05/27 07:14:46;;;;;;;3.10;2.90;;;29.80;58.90;;;;;;6278383;28;20231;-65
2022/05/27 07:17:49;;;;;;;4.38;3.47;;;30.60;57.90;;;;;;6278475;28;20237;-65
2022/05/27 07:20:59;;;;;;;2.95;2.75;;;31.30;56.00;;;;;;6278358;28;20245;-66
2022/05/27 07:24:02;;;;;;;3.30;2.90;;;32.10;54.20;;;;;;6277836;28;20231;-65
2022/05/27 07:27:06;;;;;;;3.80;3.50;;;32.10;53.20;;;;;;6278237;28;20227;-66
2022/05/27 07:30:14;;;;;;;3.38;3.08;;;31.00;54.00;;;;;;6277876;28;20226;-67
2022/05/27 07:33:17;;;;;;;3.50;3.20;;;31.60;54.40;;;;;;6277472;28;20257;-67
2022/05/27 07:36:21;;;;;;;4.15;3.58;;;32.30;53.20;;;;;;6277636;28;20195;-66
2022/05/27 07:39:29;;;;;;;5.68;3.17;;;33.60;50.30;;;;;;6277672;28;20203;-67
2022/05/27 07:42:32;;;;;;;3.20;3.00;;;33.60;50.70;;;;;;6276785;28;20231;-66
2022/05/27 07:45:39;;;;;;;3.92;3.60;;;33.20;50.00;;;;;;6276731;28;20243;-66
2022/05/27 07:48:42;;;;;;;3.05;2.60;;;34.00;49.10;;;;;;6277509;28;20219;-67
2022/05/27 07:51:47;;;;;;;5.35;2.78;;;34.80;47.60;;;;;;6276772;28;20237;-67
2022/05/27 07:54:50;;;;;;;4.50;3.50;;;35.50;45.80;;;;;;6276436;28;20305;-67
2022/05/27 07:57:58;;;;;;;4.35;3.65;;;35.50;44.20;;;;;;6276147;28;20663;-67
2022/05/27 08:01:05;;;;;;;3.22;2.90;;;34.90;44.90;;;;;;6275811;28;20616;-67
2022/05/27 08:04:08;;;;;;;5.20;3.47;;;34.40;44.70;;;;;;6275839;28;20309;-66
2022/05/27 08:07:11;;;;;;;3.97;3.40;;;34.00;45.10;;;;;;6275917;28;20243;-67
2022/05/27 08:10:17;;;;;;;3.53;3.28;;;33.00;47.00;;;;;;6276379;28;20623;-66
2022/05/27 08:13:22;;;;;;;3.33;3.05;;;32.10;48.00;;;;;;6276183;28;20219;-66
2022/05/27 08:16:26;;;;;;;3.78;3.45;;;31.70;49.10;;;;;;6277141;28;20242;-67
2022/05/27 08:19:30;;;;;;;4.97;3.80;;;30.80;50.30;;;;;;6277115;28;20231;-67
2022/05/27 08:22:34;;;;;;;4.25;3.85;;;30.20;51.60;;;;;;6276833;28;20231;-66
2022/05/27 08:25:38;;;;;;;5.00;4.60;;;29.60;52.60;;;;;;6277689;28;20564;-66
2022/05/27 08:28:42;;;;;;;4.23;3.93;;;29.00;54.50;;;;;;6276796;28;20702;-66
2022/05/27 08:31:47;;;;;;;3.83;3.60;;;28.30;56.50;;;;;;6277163;28;20726;-66
2022/05/27 08:38:16;;;;;;;3.17;2.90;;;27.60;57.20;;;;;;6277510;28;20231;-66
2022/05/27 08:41:32;;;;;;;3.90;3.60;;;27.50;58.10;;;;;;6276674;28;20231;-65
2022/05/27 08:44:45;;;;;;;4.07;3.30;;;27.40;58.70;;;;;;6276808;28;20235;-65
2022/05/27 08:47:53;;;;;;;3.90;3.30;;;27.50;58.50;;;;;;6276886;28;20257;-66
2022/05/27 08:51:00;;;;;;;3.77;3.50;;;27.10;59.00;;;;;;6277420;28;20284;-66
2022/05/27 08:54:08;;;;;;;3.97;3.67;;;27.00;59.20;;;;;;6277747;28;20223;-66
2022/05/27 09:00:33;;;;;;;3.10;2.80;;;27.00;60.00;;;;;;6281681;28;20637;-67
2022/05/27 09:03:44;;;;;;;3.00;2.70;;;26.60;60.20;;;;;;6282924;28;20227;-65
2022/05/27 09:06:50;;;;;;;3.13;2.93;;;26.80;60.50;;;;;;6277480;28;20238;-66
2022/05/27 09:09:55;;;;;;;4.50;3.20;;;27.00;60.40;;;;;;6282062;28;20570;-66
2022/05/27 09:13:09;;;;;;;3.67;3.37;;;27.00;60.00;;;;;;6282000;28;20656;-66
2022/05/27 09:16:17;;;;;;;3.23;2.90;;;26.90;60.00;;;;;;6281872;28;20409;-66
2022/05/27 09:19:26;;;;;;;3.67;3.30;;;27.10;59.80;;;;;;6279999;28;20226;-67
2022/05/27 09:22:41;;;;;;;3.10;2.90;;;27.20;59.40;;;;;;6280377;28;20242;-66
2022/05/27 09:25:53;;;;;;;3.97;2.57;;;27.50;59.10;;;;;;6280302;28;20254;-66
2022/05/27 09:29:07;;;;;;;3.37;3.13;;;27.60;59.60;;;;;;6280350;28;20238;-66
2022/05/27 09:32:15;;;;;;;3.70;3.37;;;27.50;58.80;;;;;;6280141;28;20681;-67
2022/05/27 09:35:22;;;;;;;3.13;2.83;;;27.50;58.50;;;;;;6280888;28;20220;-66
2022/05/27 09:38:51;;;;;;;2.97;2.77;;;27.40;58.70;;;;;;6280948;28;20227;-66
2022/05/27 09:42:04;;;;;;;6.10;2.87;;;27.50;58.90;;;;;;6280432;28;20242;-66
2022/05/27 09:45:07;;;;;;;4.03;3.00;;;27.50;58.80;;;;;;6280386;28;20548;-67
2022/05/27 09:48:11;;;;;;;3.83;2.63;;;27.20;58.70;;;;;;6280382;28;20375;-66
2022/05/27 09:51:18;;;;;;;4.00;3.30;;;27.40;60.10;;;;;;6280025;28;20364;-66
2022/05/27 09:54:40;;;;;;;3.77;2.40;;;27.50;59.00;;;;;;6280344;28;20237;-66
2022/05/27 09:58:06;;;;;;;2.90;2.70;;;27.40;59.20;;;;;;6279954;28;20234;-67
2022/05/27 10:01:22;;;;;;;2.73;2.53;;;27.50;58.30;;;;;;6280340;28;20231;-66
2022/05/27 10:04:25;;;;;;;2.93;2.73;;;27.30;58.60;;;;;;6279583;28;20235;-66
2022/05/27 10:07:35;;;;;;;3.30;3.00;;;27.30;59.30;;;;;;6279398;28;20222;-66
2022/05/27 10:10:41;;;;;;;3.33;3.03;;;27.50;60.40;;;;;;6276721;28;20227;-67
2022/05/27 10:13:44;;;;;;;3.90;3.07;;;27.50;59.30;;;;;;6280571;28;20231;-66
2022/05/27 10:17:07;;;;;;;4.03;3.00;;;27.60;59.40;;;;;;6279917;28;20237;-66
2022/05/27 10:20:22;;;;;;;3.57;3.37;;;27.60;59.30;;;;;;6279744;28;20253;-67
2022/05/27 10:23:30;;;;;;;3.10;2.80;;;27.70;59.40;;;;;;6279461;28;20250;-66
2022/05/27 10:26:34;;;;;;;3.07;2.87;;;27.60;59.80;;;;;;6279977;28;20228;-66
2022/05/27 10:29:51;;;;;;;3.10;2.80;;;27.70;59.70;;;;;;6280038;28;20234;-66
2022/05/27 10:32:56;;;;;;;4.30;3.60;;;27.60;60.00;;;;;;6279207;28;20703;-66
2022/05/27 10:35:59;;;;;;;6.03;3.20;;;27.60;59.60;;;;;;6279663;28;20233;-66
2022/05/27 10:39:17;;;;;;;3.37;3.00;;;27.70;59.70;;;;;;6279721;28;20250;-66
2022/05/27 10:42:33;;;;;;;3.70;3.40;;;27.60;59.90;;;;;;6279485;28;20219;-66
2022/05/27 10:45:40;;;;;;;3.90;3.50;;;27.50;60.10;;;;;;6279433;28;20561;-66
2022/05/27 10:49:08;;;;;;;3.30;3.00;;;27.60;59.60;;;;;;6279319;28;20240;-67
2022/05/27 10:52:29;;;;;;;3.73;3.33;;;27.50;60.30;;;;;;6279287;28;20227;-65
2022/05/27 10:55:45;;;;;;;3.40;2.93;;;27.60;60.50;;;;;;6279253;28;20268;-66
2022/05/27 11:02:40;;;;;;;3.37;3.17;;;27.40;60.50;;;;;;6278702;28;20534;-66
2022/05/27 11:05:55;;;;;;;3.37;3.13;;;27.60;60.00;;;;;;6278554;28;20281;-67
2022/05/27 11:09:16;;;;;;;4.03;2.80;;;27.70;59.60;;;;;;6279853;28;20668;-66
2022/05/27 11:15:10;;;;;;;3.80;3.50;;;27.60;60.20;;;;;;6278025;28;20241;-66
2022/05/27 11:16:07;;;;;;;5.83;3.47;;;27.90;59.80;;;;;;6279515;28;20671;-66
2022/05/27 11:19:26;;;;;;;3.93;3.40;;;28.10;59.60;;;;;;6279976;28;20373;-66
2022/05/27 11:22:35;;;;;;;4.13;3.80;;;28.10;59.00;;;;;;6278679;28;20542;-65
2022/05/27 11:25:55;;;;;;;3.70;3.20;;;27.60;59.30;;;;;;6277637;28;20277;-66
2022/05/27 11:29:36;;;;;;;3.53;3.23;;;27.60;60.50;;;;;;6278488;28;20269;-66
2022/05/27 11:32:58;;;;;;;5.90;3.10;;;27.90;59.40;;;;;;6279028;28;20234;-66
2022/05/27 11:36:17;;;;;;;3.43;3.13;;;27.80;59.10;;;;;;6278921;28;20223;-67
2022/05/27 11:39:47;;;;;;;4.10;3.60;;;27.60;59.60;;;;;;6278738;28;20231;-66
2022/05/27 11:43:41;;;;;;;4.13;3.33;;;27.60;59.40;;;;;;6279294;28;20296;-67
2022/05/27 11:47:06;;;;;;;3.40;2.80;;;27.80;59.70;;;;;;6234888;28;20239;-66
2022/05/27 11:50:28;;;;;;;4.13;3.73;;;27.80;59.80;;;;;;6278531;28;20238;-66
2022/05/27 11:53:45;;;;;;;6.40;4.07;;;28.00;59.80;;;;;;6279345;28;20231;-66
2022/05/27 11:56:59;;;;;;;3.27;3.07;;;27.90;59.80;;;;;;6282485;28;20223;-66
2022/05/27 12:00:07;;;;;;;4.80;4.40;;;28.00;60.10;;;;;;6280052;28;20231;-66
2022/05/27 12:03:19;;;;;;;5.17;3.80;;;28.10;59.90;;;;;;6278727;28;20235;-65
2022/05/27 12:06:30;;;;;;;4.27;3.73;;;28.20;60.00;;;;;;6278448;28;20237;-65
2022/05/27 12:09:39;;;;;;;4.40;4.00;;;27.80;60.40;;;;;;6277588;28;20188;-65
2022/05/27 12:12:49;;;;;;;3.83;3.53;;;27.50;62.30;;;;;;6277452;28;20258;-65
2022/05/27 12:15:55;;;;;;;4.80;3.77;;;27.30;62.50;;;;;;6274109;28;20230;-65
2022/05/27 12:19:03;;;;;;;5.00;4.23;;;27.60;62.80;;;;;;6278023;28;20227;-65
2022/05/27 12:22:10;;;;;;;4.00;3.70;;;27.70;62.00;;;;;;6278358;28;20226;-65
2022/05/27 12:25:17;;;;;;;4.87;4.50;;;27.80;63.20;;;;;;6277621;28;20253;-66
2022/05/27 12:28:27;;;;;;;8.10;4.47;;;27.90;61.70;;;;;;6276940;28;20535;-66
2022/05/27 12:31:32;;;;;;;5.73;4.40;;;27.70;62.40;;;;;;6277252;28;20237;-65
2022/05/27 12:34:39;;;;;;;4.47;4.17;;;27.60;62.70;;;;;;6277280;28;20239;-66
2022/05/27 12:37:49;;;;;;;5.17;4.63;;;27.60;63.10;;;;;;6277104;28;20223;-66
2022/05/27 12:40:55;;;;;;;4.43;4.07;;;27.80;63.20;;;;;;6278074;28;20241;-66
2022/05/27 12:44:00;;;;;;;4.50;4.20;;;27.90;63.10;;;;;;6277600;28;20253;-66
2022/05/27 12:47:05;;;;;;;4.50;4.10;;;28.10;62.40;;;;;;6276888;28;20753;-66
2022/05/27 12:50:21;;;;;;;5.63;4.60;;;28.30;62.10;;;;;;6277602;28;20254;-66
2022/05/27 12:53:42;;;;;;;6.90;5.40;;;28.30;62.60;;;;;;6276947;28;20239;-66
2022/05/27 13:03:59;;;;;;;6.00;4.70;;;27.90;63.50;;;;;;6277894;28;20241;-66
2022/05/27 13:07:07;;;;;;;5.10;4.70;;;27.60;64.00;;;;;;6278052;28;20665;-66
2022/05/27 13:10:53;;;;;;;6.23;5.40;;;27.60;63.90;;;;;;6278022;28;20224;-66
2022/05/27 13:14:13;;;;;;;5.80;5.20;;;27.90;64.50;;;;;;6278344;28;20235;-66
2022/05/27 13:17:35;;;;;;;6.03;5.53;;;27.90;64.00;;;;;;6278636;28;20270;-66
2022/05/27 13:20:52;;;;;;;5.30;4.80;;;27.90;63.10;;;;;;6273272;28;20735;-66
2022/05/27 13:24:01;;;;;;;5.47;5.07;;;28.10;63.70;;;;;;6277504;28;20234;-66
2022/05/27 13:27:15;;;;;;;6.17;5.40;;;28.10;63.60;;;;;;6278492;28;20227;-66
2022/05/27 13:30:24;;;;;;;5.37;4.90;;;27.80;65.30;;;;;;6278375;28;20668;-66
2022/05/27 13:33:33;;;;;;;5.70;5.20;;;27.80;65.70;;;;;;6279039;28;20219;-66
2022/05/27 13:36:41;;;;;;;5.60;5.00;;;27.90;65.60;;;;;;6278586;28;20195;-66
2022/05/27 13:39:52;;;;;;;5.63;5.13;;;28.20;65.60;;;;;;6278776;28;20235;-66
2022/05/27 13:43:00;;;;;;;8.30;5.37;;;28.10;65.00;;;;;;6279535;28;20734;-66
2022/05/27 13:46:13;;;;;;;7.57;5.10;;;28.00;64.10;;;;;;6286504;28;20238;-66
2022/05/27 13:49:30;;;;;;;6.20;5.60;;;28.00;64.40;;;;;;6287326;28;20230;-66
2022/05/27 13:52:35;;;;;;;5.17;4.77;;;28.00;64.50;;;;;;6284973;28;20239;-65
2022/05/27 13:55:40;;;;;;;6.30;5.70;;;28.00;64.40;;;;;;6280581;28;20227;-66
2022/05/27 13:58:52;;;;;;;8.20;6.10;;;27.80;64.90;;;;;;6282705;28;20227;-66
2022/05/27 14:01:59;;;;;;;5.90;5.50;;;27.80;64.70;;;;;;6281958;28;20235;-65
2022/05/27 14:05:06;;;;;;;8.63;5.40;;;27.80;64.90;;;;;;6281974;28;20674;-65
2022/05/27 14:08:19;;;;;;;6.70;5.70;;;27.90;63.20;;;;;;6281133;28;20233;-66
2022/05/27 14:11:29;;;;;;;6.33;5.73;;;28.00;64.40;;;;;;6280999;28;20232;-65
2022/05/27 14:14:41;;;;;;;6.80;5.77;;;28.00;64.00;;;;;;6280948;28;20239;-67
2022/05/27 14:17:46;;;;;;;6.10;5.63;;;28.00;63.70;;;;;;6281207;28;20223;-66
2022/05/27 14:24:24;;;;;;;6.43;5.90;;;28.10;65.90;;;;;;6279832;28;20322;-67
2022/05/27 14:27:31;;;;;;;5.73;5.40;;;28.20;65.70;;;;;;6279890;28;20740;-66
2022/05/27 14:30:36;;;;;;;6.60;6.00;;;28.30;65.40;;;;;;6281093;28;20234;-66
2022/05/27 14:33:43;;;;;;;8.00;6.47;;;28.30;65.40;;;;;;6281958;28;20239;-66
2022/05/27 14:36:55;;;;;;;6.17;5.67;;;28.40;65.10;;;;;;6281745;28;20227;-67
2022/05/27 14:40:03;;;;;;;8.07;5.97;;;28.30;65.30;;;;;;6281712;28;20227;-65
2022/05/27 14:43:24;;;;;;;6.60;6.10;;;28.40;65.50;;;;;;6281070;28;20231;-66
2022/05/27 14:46:30;;;;;;;5.80;5.30;;;28.20;65.70;;;;;;6280407;28;20314;-67
2022/05/27 14:49:43;;;;;;;6.40;5.90;;;28.10;66.40;;;;;;6280711;28;20273;-66
2022/05/27 14:52:55;;;;;;;7.63;6.87;;;28.20;66.30;;;;;;6282082;28;20227;-66
2022/05/27 14:56:00;;;;;;;6.30;5.70;;;28.20;66.10;;;;;;6282822;28;20237;-66
2022/05/27 14:59:09;;;;;;;5.73;5.33;;;28.20;65.40;;;;;;6285242;28;20227;-66
2022/05/27 15:02:22;;;;;;;6.87;6.20;;;28.30;66.60;;;;;;6284505;28;20231;-65
2022/05/27 15:05:32;;;;;;;6.23;5.33;;;28.30;66.10;;;;;;6287990;28;20227;-65
2022/05/27 15:08:35;;;;;;;6.03;5.53;;;28.40;65.80;;;;;;6285966;28;20226;-65
2022/05/27 15:11:38;;;;;;;5.80;5.40;;;28.30;66.00;;;;;;6287516;28;20239;-65
2022/05/27 15:14:44;;;;;;;6.50;6.00;;;28.10;66.30;;;;;;6286603;28;20227;-65
2022/05/27 15:18:00;;;;;;;6.30;5.77;;;28.10;66.80;;;;;;6287229;28;20227;-66
2022/05/27 15:21:06;;;;;;;6.87;6.27;;;28.40;67.30;;;;;;6284213;28;20237;-67
2022/05/27 15:24:22;;;;;;;6.83;5.97;;;28.50;65.60;;;;;;6284096;28;20227;-66
2022/05/27 15:34:16;;;;;;;6.73;6.20;;;28.40;67.50;;;;;;6280240;28;20306;-65
2022/05/27 15:37:20;;;;;;;6.83;6.30;;;28.40;68.10;;;;;;6280289;28;20238;-66
2022/05/27 15:40:23;;;;;;;7.13;6.53;;;28.50;67.60;;;;;;6280349;28;20227;-66
2022/05/27 15:43:36;;;;;;;7.30;6.40;;;28.60;67.60;;;;;;6280346;28;20250;-65
2022/05/27 15:46:41;;;;;;;7.67;6.97;;;28.60;67.90;;;;;;6280376;28;20242;-66
2022/05/27 15:49:44;;;;;;;6.80;6.20;;;28.60;67.60;;;;;;6279780;28;20227;-66
2022/05/27 15:52:47;;;;;;;7.80;7.20;;;28.30;67.80;;;;;;6277990;28;20235;-66
2022/05/27 15:55:51;;;;;;;7.03;6.50;;;28.40;68.60;;;;;;6277073;28;20762;-65
2022/05/27 15:58:54;;;;;;;7.87;6.83;;;28.40;69.80;;;;;;6278450;28;20222;-66
2022/05/27 16:01:59;;;;;;;9.20;6.80;;;28.20;69.90;;;;;;6279674;28;20231;-65
2022/05/27 16:05:02;;;;;;;7.30;6.70;;;28.10;71.00;;;;;;6279384;28;20237;-66
2022/05/27 16:08:06;;;;;;;6.50;6.00;;;28.20;71.30;;;;;;6278285;28;20234;-65
2022/05/27 16:11:10;;;;;;;8.20;7.40;;;28.20;70.70;;;;;;6278876;28;20257;-65
2022/05/27 16:14:14;;;;;;;10.37;7.50;;;28.10;71.30;;;;;;6279203;28;20231;-65
2022/05/27 16:20:41;;;;;;;7.70;7.10;;;27.70;71.70;;;;;;6278447;28;20231;-66
2022/05/27 16:23:50;;;;;;;11.80;8.30;;;27.80;72.60;;;;;;6277436;28;20237;-66
2022/05/27 16:27:02;;;;;;;7.57;6.97;;;27.80;73.10;;;;;;6278728;28;20231;-67
2022/05/27 16:30:08;;;;;;;6.97;6.47;;;27.90;73.30;;;;;;6278683;28;20227;-65
2022/05/27 16:33:13;;;;;;;8.50;6.87;;;27.90;73.30;;;;;;6278760;28;20235;-66
2022/05/27 16:36:16;;;;;;;7.30;6.70;;;27.90;73.20;;;;;;6278438;28;20238;-65
2022/05/27 16:39:20;;;;;;;8.50;7.33;;;27.80;73.10;;;;;;6277890;28;20231;-66
2022/05/27 16:42:24;;;;;;;7.90;7.20;;;27.90;73.10;;;;;;6277942;28;20227;-65
2022/05/27 16:45:28;;;;;;;6.83;6.33;;;27.90;73.30;;;;;;6277450;28;20245;-67
2022/05/27 16:48:33;;;;;;;8.67;7.97;;;27.90;73.30;;;;;;6278486;28;20219;-66
2022/05/27 16:51:37;;;;;;;8.17;7.50;;;27.80;73.60;;;;;;6277839;28;20577;-67
2022/05/27 16:54:40;;;;;;;7.50;6.90;;;27.80;74.20;;;;;;6276785;28;20329;-66
2022/05/27 16:57:43;;;;;;;7.30;6.70;;;27.70;74.80;;;;;;6276418;28;20222;-66
2022/05/27 17:00:46;;;;;;;8.37;7.60;;;27.50;76.00;;;;;;6282462;28;20237;-66
2022/05/27 17:03:51;;;;;;;7.83;6.80;;;27.50;76.30;;;;;;6283302;28;20234;-67
2022/05/27 17:06:54;;;;;;;7.37;6.83;;;27.30;77.10;;;;;;6284027;28;20242;-66